sensor_id;sensor_type;location;lat;lon;timestamp;P1;durP1;ratioP1;P2;durP2;ratioP2
17177;SDS011;8704;52.006;4.374;2022-10-16T00:01:06;2.63;;;1.60;;
17177;SDS011;8704;52.006;4.374;2022-10-16T00:03:35;3.67;;;1.67;;
17177;SDS011;8704;52.006;4.374;2022-10-16T00:06:03;4.35;;;1.67;;
17177;SDS011;8704;52.006;4.374;2022-10-16T00:08:31;4.47;;;1.70;;
17177;SDS011;8704;52.006;4.374;2022-10-16T00:11:00;3.42;;;1.60;;
17177;SDS011;8704;52.006;4.374;2022-10-16T00:13:30;4.57;;;1.90;;
17177;SDS011;8704;52.006;4.374;2022-10-16T00:15:58;6.40;;;1.63;;
17177;SDS011;8704;52.006;4.374;2022-10-16T00:18:29;5.20;;;1.80;;
17177;SDS011;8704;52.006;4.374;2022-10-16T00:21:01;4.95;;;1.58;;
17177;SDS011;8704;52.006;4.374;2022-10-16T00:23:30;4.25;;;1.52;;
17177;SDS011;8704;52.006;4.374;2022-10-16T00:25:59;3.88;;;1.60;;
17177;SDS011;8704;52.006;4.374;2022-10-16T00:28:28;2.40;;;1.30;;
17177;SDS011;8704;52.006;4.374;2022-10-16T00:30:57;2.80;;;1.42;;
17177;SDS011;8704;52.006;4.374;2022-10-16T00:33:25;1.98;;;1.00;;
17177;SDS011;8704;52.006;4.374;2022-10-16T00:35:54;3.67;;;1.40;;
17177;SDS011;8704;52.006;4.374;2022-10-16T00:38:25;3.88;;;1.60;;
17177;SDS011;8704;52.006;4.374;2022-10-16T00:40:53;7.32;;;1.58;;
17177;SDS011;8704;52.006;4.374;2022-10-16T00:43:35;3.40;;;1.67;;
17177;SDS011;8704;52.006;4.374;2022-10-16T00:46:07;3.47;;;1.52;;
17177;SDS011;8704;52.006;4.374;2022-10-16T00:48:40;3.63;;;1.20;;
17177;SDS011;8704;52.006;4.374;2022-10-16T00:51:11;3.97;;;1.80;;
17177;SDS011;8704;52.006;4.374;2022-10-16T00:53:39;4.07;;;1.65;;
17177;SDS011;8704;52.006;4.374;2022-10-16T00:56:07;3.20;;;1.40;;
17177;SDS011;8704;52.006;4.374;2022-10-16T00:58:35;4.63;;;1.50;;
17177;SDS011;8704;52.006;4.374;2022-10-16T01:01:03;3.72;;;1.75;;
17177;SDS011;8704;52.006;4.374;2022-10-16T01:03:32;3.42;;;1.75;;
17177;SDS011;8704;52.006;4.374;2022-10-16T01:06:05;4.22;;;1.80;;
17177;SDS011;8704;52.006;4.374;2022-10-16T01:08:47;5.40;;;1.70;;
17177;SDS011;8704;52.006;4.374;2022-10-16T01:11:26;3.88;;;1.92;;
17177;SDS011;8704;52.006;4.374;2022-10-16T01:14:01;4.38;;;1.65;;
17177;SDS011;8704;52.006;4.374;2022-10-16T01:16:38;5.53;;;1.55;;
17177;SDS011;8704;52.006;4.374;2022-10-16T01:19:14;3.05;;;1.65;;
17177;SDS011;8704;52.006;4.374;2022-10-16T01:21:47;5.88;;;1.90;;
17177;SDS011;8704;52.006;4.374;2022-10-16T01:24:22;2.60;;;1.77;;
17177;SDS011;8704;52.006;4.374;2022-10-16T01:27:06;3.33;;;2.10;;
17177;SDS011;8704;52.006;4.374;2022-10-16T01:29:37;4.75;;;1.75;;
17177;SDS011;8704;52.006;4.374;2022-10-16T01:32:10;5.13;;;2.20;;
17177;SDS011;8704;52.006;4.374;2022-10-16T01:34:45;4.43;;;1.92;;
17177;SDS011;8704;52.006;4.374;2022-10-16T01:37:26;4.28;;;2.20;;
17177;SDS011;8704;52.006;4.374;2022-10-16T01:40:00;4.53;;;2.00;;
17177;SDS011;8704;52.006;4.374;2022-10-16T01:42:34;4.28;;;1.85;;
17177;SDS011;8704;52.006;4.374;2022-10-16T01:45:06;4.75;;;1.85;;
17177;SDS011;8704;52.006;4.374;2022-10-16T01:47:37;3.95;;;2.10;;
17177;SDS011;8704;52.006;4.374;2022-10-16T01:50:07;3.97;;;2.22;;
17177;SDS011;8704;52.006;4.374;2022-10-16T01:52:37;4.07;;;1.90;;
17177;SDS011;8704;52.006;4.374;2022-10-16T01:55:07;2.85;;;1.73;;
17177;SDS011;8704;52.006;4.374;2022-10-16T01:57:39;3.67;;;2.00;;
17177;SDS011;8704;52.006;4.374;2022-10-16T02:00:12;4.03;;;2.13;;
17177;SDS011;8704;52.006;4.374;2022-10-16T02:02:41;4.32;;;2.10;;
17177;SDS011;8704;52.006;4.374;2022-10-16T02:05:16;5.00;;;2.20;;
17177;SDS011;8704;52.006;4.374;2022-10-16T02:07:49;4.70;;;2.42;;
17177;SDS011;8704;52.006;4.374;2022-10-16T02:10:17;4.50;;;2.40;;
17177;SDS011;8704;52.006;4.374;2022-10-16T02:12:48;5.75;;;2.60;;
17177;SDS011;8704;52.006;4.374;2022-10-16T02:15:20;6.10;;;2.60;;
17177;SDS011;8704;52.006;4.374;2022-10-16T02:17:48;4.18;;;2.80;;
17177;SDS011;8704;52.006;4.374;2022-10-16T02:20:16;4.72;;;2.88;;
17177;SDS011;8704;52.006;4.374;2022-10-16T02:22:46;4.68;;;2.83;;
17177;SDS011;8704;52.006;4.374;2022-10-16T02:25:18;7.05;;;2.95;;
17177;SDS011;8704;52.006;4.374;2022-10-16T02:27:53;4.78;;;2.85;;
17177;SDS011;8704;52.006;4.374;2022-10-16T02:30:25;5.60;;;3.03;;
17177;SDS011;8704;52.006;4.374;2022-10-16T02:32:57;4.07;;;2.80;;
17177;SDS011;8704;52.006;4.374;2022-10-16T02:35:28;5.45;;;3.03;;
17177;SDS011;8704;52.006;4.374;2022-10-16T02:37:57;6.13;;;2.70;;
17177;SDS011;8704;52.006;4.374;2022-10-16T02:40:26;4.55;;;2.70;;
17177;SDS011;8704;52.006;4.374;2022-10-16T02:42:56;7.00;;;3.00;;
17177;SDS011;8704;52.006;4.374;2022-10-16T02:45:24;6.53;;;2.83;;
17177;SDS011;8704;52.006;4.374;2022-10-16T02:47:52;7.57;;;2.72;;
17177;SDS011;8704;52.006;4.374;2022-10-16T02:50:20;3.75;;;2.70;;
17177;SDS011;8704;52.006;4.374;2022-10-16T02:52:48;8.85;;;2.63;;
17177;SDS011;8704;52.006;4.374;2022-10-16T02:55:16;4.47;;;2.60;;
17177;SDS011;8704;52.006;4.374;2022-10-16T02:57:44;5.28;;;3.08;;
17177;SDS011;8704;52.006;4.374;2022-10-16T03:00:14;7.65;;;3.13;;
17177;SDS011;8704;52.006;4.374;2022-10-16T03:02:43;6.57;;;3.00;;
17177;SDS011;8704;52.006;4.374;2022-10-16T03:05:11;6.05;;;3.20;;
17177;SDS011;8704;52.006;4.374;2022-10-16T03:07:40;5.60;;;3.10;;
17177;SDS011;8704;52.006;4.374;2022-10-16T03:10:08;6.53;;;3.45;;
17177;SDS011;8704;52.006;4.374;2022-10-16T03:12:36;5.72;;;3.58;;
17177;SDS011;8704;52.006;4.374;2022-10-16T03:15:04;5.55;;;4.10;;
17177;SDS011;8704;52.006;4.374;2022-10-16T03:17:34;4.68;;;3.70;;
17177;SDS011;8704;52.006;4.374;2022-10-16T03:20:03;5.35;;;4.22;;
17177;SDS011;8704;52.006;4.374;2022-10-16T03:22:31;9.82;;;4.00;;
17177;SDS011;8704;52.006;4.374;2022-10-16T03:24:59;6.80;;;3.95;;
17177;SDS011;8704;52.006;4.374;2022-10-16T03:27:27;4.90;;;3.50;;
17177;SDS011;8704;52.006;4.374;2022-10-16T03:29:55;5.07;;;4.07;;
17177;SDS011;8704;52.006;4.374;2022-10-16T03:32:23;5.90;;;4.43;;
17177;SDS011;8704;52.006;4.374;2022-10-16T03:34:53;5.20;;;3.90;;
17177;SDS011;8704;52.006;4.374;2022-10-16T03:37:22;6.72;;;4.03;;
17177;SDS011;8704;52.006;4.374;2022-10-16T03:39:51;6.00;;;4.13;;
17177;SDS011;8704;52.006;4.374;2022-10-16T03:42:19;7.65;;;3.97;;
17177;SDS011;8704;52.006;4.374;2022-10-16T03:44:47;5.28;;;3.70;;
17177;SDS011;8704;52.006;4.374;2022-10-16T03:47:15;9.10;;;3.70;;
17177;SDS011;8704;52.006;4.374;2022-10-16T03:49:47;8.55;;;4.50;;
17177;SDS011;8704;52.006;4.374;2022-10-16T03:52:16;7.30;;;3.90;;
17177;SDS011;8704;52.006;4.374;2022-10-16T03:54:49;6.88;;;4.53;;
17177;SDS011;8704;52.006;4.374;2022-10-16T03:57:17;5.90;;;4.40;;
17177;SDS011;8704;52.006;4.374;2022-10-16T03:59:45;6.40;;;4.18;;
17177;SDS011;8704;52.006;4.374;2022-10-16T04:02:12;5.85;;;4.45;;
17177;SDS011;8704;52.006;4.374;2022-10-16T04:04:40;8.02;;;5.25;;
17177;SDS011;8704;52.006;4.374;2022-10-16T04:07:08;7.13;;;4.47;;
17177;SDS011;8704;52.006;4.374;2022-10-16T04:09:38;8.13;;;5.30;;
17177;SDS011;8704;52.006;4.374;2022-10-16T04:12:06;6.88;;;5.13;;
17177;SDS011;8704;52.006;4.374;2022-10-16T04:14:33;8.48;;;5.10;;
17177;SDS011;8704;52.006;4.374;2022-10-16T04:17:01;7.25;;;5.03;;
17177;SDS011;8704;52.006;4.374;2022-10-16T04:19:29;8.93;;;5.80;;
17177;SDS011;8704;52.006;4.374;2022-10-16T04:21:57;6.45;;;4.93;;
17177;SDS011;8704;52.006;4.374;2022-10-16T04:24:25;8.52;;;5.45;;
17177;SDS011;8704;52.006;4.374;2022-10-16T04:26:54;6.68;;;4.68;;
17177;SDS011;8704;52.006;4.374;2022-10-16T04:29:22;7.10;;;4.97;;
17177;SDS011;8704;52.006;4.374;2022-10-16T04:31:50;6.25;;;5.32;;
17177;SDS011;8704;52.006;4.374;2022-10-16T04:34:18;7.00;;;5.72;;
17177;SDS011;8704;52.006;4.374;2022-10-16T04:36:46;5.95;;;5.35;;
17177;SDS011;8704;52.006;4.374;2022-10-16T04:39:15;7.65;;;4.82;;
17177;SDS011;8704;52.006;4.374;2022-10-16T04:41:43;7.70;;;4.93;;
17177;SDS011;8704;52.006;4.374;2022-10-16T04:44:12;7.32;;;5.00;;
17177;SDS011;8704;52.006;4.374;2022-10-16T04:46:40;10.48;;;5.45;;
17177;SDS011;8704;52.006;4.374;2022-10-16T04:49:08;6.10;;;5.35;;
17177;SDS011;8704;52.006;4.374;2022-10-16T04:51:36;9.50;;;6.03;;
17177;SDS011;8704;52.006;4.374;2022-10-16T04:54:04;8.95;;;5.65;;
17177;SDS011;8704;52.006;4.374;2022-10-16T04:56:32;8.63;;;5.47;;
17177;SDS011;8704;52.006;4.374;2022-10-16T04:59:06;8.43;;;5.30;;
17177;SDS011;8704;52.006;4.374;2022-10-16T05:01:35;10.65;;;6.68;;
17177;SDS011;8704;52.006;4.374;2022-10-16T05:04:03;7.80;;;6.78;;
17177;SDS011;8704;52.006;4.374;2022-10-16T05:06:31;8.30;;;7.30;;
17177;SDS011;8704;52.006;4.374;2022-10-16T05:08:59;10.02;;;9.00;;
17177;SDS011;8704;52.006;4.374;2022-10-16T05:11:27;10.80;;;8.82;;
17177;SDS011;8704;52.006;4.374;2022-10-16T05:13:55;13.27;;;10.02;;
17177;SDS011;8704;52.006;4.374;2022-10-16T05:16:23;8.07;;;7.30;;
17177;SDS011;8704;52.006;4.374;2022-10-16T05:18:52;9.90;;;8.23;;
17177;SDS011;8704;52.006;4.374;2022-10-16T05:21:29;9.20;;;8.43;;
17177;SDS011;8704;52.006;4.374;2022-10-16T05:23:57;14.73;;;10.95;;
17177;SDS011;8704;52.006;4.374;2022-10-16T05:26:25;12.15;;;10.38;;
17177;SDS011;8704;52.006;4.374;2022-10-16T05:28:53;10.65;;;9.65;;
17177;SDS011;8704;52.006;4.374;2022-10-16T05:31:21;11.85;;;10.75;;
17177;SDS011;8704;52.006;4.374;2022-10-16T05:33:49;11.75;;;10.55;;
17177;SDS011;8704;52.006;4.374;2022-10-16T05:36:18;11.30;;;9.48;;
17177;SDS011;8704;52.006;4.374;2022-10-16T05:38:50;17.55;;;11.27;;
17177;SDS011;8704;52.006;4.374;2022-10-16T05:43:47;13.02;;;11.65;;
17177;SDS011;8704;52.006;4.374;2022-10-16T05:46:16;11.32;;;10.27;;
17177;SDS011;8704;52.006;4.374;2022-10-16T05:48:44;11.30;;;10.20;;
17177;SDS011;8704;52.006;4.374;2022-10-16T05:51:13;10.73;;;9.75;;
17177;SDS011;8704;52.006;4.374;2022-10-16T05:53:43;10.80;;;9.88;;
17177;SDS011;8704;52.006;4.374;2022-10-16T05:56:11;11.98;;;10.68;;
17177;SDS011;8704;52.006;4.374;2022-10-16T05:58:39;13.00;;;10.43;;
17177;SDS011;8704;52.006;4.374;2022-10-16T06:01:09;11.00;;;9.60;;
17177;SDS011;8704;52.006;4.374;2022-10-16T06:03:39;9.50;;;8.68;;
17177;SDS011;8704;52.006;4.374;2022-10-16T06:06:08;9.38;;;8.50;;
17177;SDS011;8704;52.006;4.374;2022-10-16T06:08:37;11.35;;;9.38;;
17177;SDS011;8704;52.006;4.374;2022-10-16T06:11:10;9.45;;;8.60;;
17177;SDS011;8704;52.006;4.374;2022-10-16T06:13:40;11.32;;;10.15;;
17177;SDS011;8704;52.006;4.374;2022-10-16T06:16:09;10.27;;;7.93;;
17177;SDS011;8704;52.006;4.374;2022-10-16T06:18:37;13.15;;;9.48;;
17177;SDS011;8704;52.006;4.374;2022-10-16T06:21:09;12.35;;;9.32;;
17177;SDS011;8704;52.006;4.374;2022-10-16T06:23:39;10.90;;;10.00;;
17177;SDS011;8704;52.006;4.374;2022-10-16T06:26:08;8.70;;;7.07;;
17177;SDS011;8704;52.006;4.374;2022-10-16T06:28:37;12.25;;;6.72;;
17177;SDS011;8704;52.006;4.374;2022-10-16T06:31:06;8.02;;;7.22;;
17177;SDS011;8704;52.006;4.374;2022-10-16T06:33:35;10.52;;;6.22;;
17177;SDS011;8704;52.006;4.374;2022-10-16T06:36:04;11.75;;;6.70;;
17177;SDS011;8704;52.006;4.374;2022-10-16T06:38:33;8.23;;;6.85;;
17177;SDS011;8704;52.006;4.374;2022-10-16T06:41:01;6.97;;;4.32;;
17177;SDS011;8704;52.006;4.374;2022-10-16T06:43:31;9.23;;;6.45;;
17177;SDS011;8704;52.006;4.374;2022-10-16T06:46:01;11.50;;;6.87;;
17177;SDS011;8704;52.006;4.374;2022-10-16T06:48:31;10.00;;;7.00;;
17177;SDS011;8704;52.006;4.374;2022-10-16T06:51:00;9.43;;;6.55;;
17177;SDS011;8704;52.006;4.374;2022-10-16T06:53:35;10.50;;;7.22;;
17177;SDS011;8704;52.006;4.374;2022-10-16T06:56:24;8.93;;;8.02;;
17177;SDS011;8704;52.006;4.374;2022-10-16T06:58:54;9.57;;;8.32;;
17177;SDS011;8704;52.006;4.374;2022-10-16T07:01:23;9.98;;;7.28;;
17177;SDS011;8704;52.006;4.374;2022-10-16T07:03:52;9.65;;;8.65;;
17177;SDS011;8704;52.006;4.374;2022-10-16T07:06:21;9.52;;;8.23;;
17177;SDS011;8704;52.006;4.374;2022-10-16T07:08:50;10.32;;;9.18;;
17177;SDS011;8704;52.006;4.374;2022-10-16T07:11:20;12.15;;;9.23;;
17177;SDS011;8704;52.006;4.374;2022-10-16T07:13:49;10.55;;;9.43;;
17177;SDS011;8704;52.006;4.374;2022-10-16T07:16:23;11.77;;;10.05;;
17177;SDS011;8704;52.006;4.374;2022-10-16T07:18:53;14.10;;;9.93;;
17177;SDS011;8704;52.006;4.374;2022-10-16T07:21:25;13.70;;;11.27;;
17177;SDS011;8704;52.006;4.374;2022-10-16T07:23:54;11.40;;;10.07;;
17177;SDS011;8704;52.006;4.374;2022-10-16T07:26:24;12.48;;;10.95;;
17177;SDS011;8704;52.006;4.374;2022-10-16T07:28:53;14.55;;;11.80;;
17177;SDS011;8704;52.006;4.374;2022-10-16T07:31:23;12.13;;;10.82;;
17177;SDS011;8704;52.006;4.374;2022-10-16T07:33:51;9.70;;;8.80;;
17177;SDS011;8704;52.006;4.374;2022-10-16T07:36:19;13.68;;;10.05;;
17177;SDS011;8704;52.006;4.374;2022-10-16T07:38:47;12.63;;;10.50;;
17177;SDS011;8704;52.006;4.374;2022-10-16T07:41:20;12.30;;;11.02;;
17177;SDS011;8704;52.006;4.374;2022-10-16T07:43:48;12.90;;;8.90;;
17177;SDS011;8704;52.006;4.374;2022-10-16T07:46:18;11.73;;;9.73;;
17177;SDS011;8704;52.006;4.374;2022-10-16T07:48:48;14.95;;;10.07;;
17177;SDS011;8704;52.006;4.374;2022-10-16T07:51:16;12.52;;;9.57;;
17177;SDS011;8704;52.006;4.374;2022-10-16T07:53:46;11.60;;;10.45;;
17177;SDS011;8704;52.006;4.374;2022-10-16T07:56:15;11.90;;;10.35;;
17177;SDS011;8704;52.006;4.374;2022-10-16T07:58:44;14.07;;;10.15;;
17177;SDS011;8704;52.006;4.374;2022-10-16T08:01:13;11.98;;;9.65;;
17177;SDS011;8704;52.006;4.374;2022-10-16T08:03:42;14.07;;;11.48;;
17177;SDS011;8704;52.006;4.374;2022-10-16T08:06:12;16.02;;;11.82;;
17177;SDS011;8704;52.006;4.374;2022-10-16T08:08:41;18.75;;;11.80;;
17177;SDS011;8704;52.006;4.374;2022-10-16T08:11:09;14.40;;;9.88;;
17177;SDS011;8704;52.006;4.374;2022-10-16T08:13:37;13.68;;;9.20;;
17177;SDS011;8704;52.006;4.374;2022-10-16T08:16:05;14.68;;;9.85;;
17177;SDS011;8704;52.006;4.374;2022-10-16T08:18:35;14.82;;;9.70;;
17177;SDS011;8704;52.006;4.374;2022-10-16T08:21:04;11.00;;;9.30;;
17177;SDS011;8704;52.006;4.374;2022-10-16T08:23:34;13.88;;;10.38;;
17177;SDS011;8704;52.006;4.374;2022-10-16T08:26:03;13.98;;;9.95;;
17177;SDS011;8704;52.006;4.374;2022-10-16T08:28:32;11.05;;;8.02;;
17177;SDS011;8704;52.006;4.374;2022-10-16T08:31:04;8.15;;;6.25;;
17177;SDS011;8704;52.006;4.374;2022-10-16T08:36:02;14.73;;;8.05;;
17177;SDS011;8704;52.006;4.374;2022-10-16T08:38:31;15.73;;;8.27;;
17177;SDS011;8704;52.006;4.374;2022-10-16T08:41:13;18.10;;;8.52;;
17177;SDS011;8704;52.006;4.374;2022-10-16T08:43:55;16.77;;;9.25;;
17177;SDS011;8704;52.006;4.374;2022-10-16T08:46:53;15.55;;;8.77;;
17177;SDS011;8704;52.006;4.374;2022-10-16T08:49:28;17.75;;;7.00;;
17177;SDS011;8704;52.006;4.374;2022-10-16T08:51:57;15.00;;;5.93;;
17177;SDS011;8704;52.006;4.374;2022-10-16T08:54:28;12.60;;;6.13;;
17177;SDS011;8704;52.006;4.374;2022-10-16T08:57:07;15.82;;;5.95;;
17177;SDS011;8704;52.006;4.374;2022-10-16T08:59:37;13.82;;;5.40;;
17177;SDS011;8704;52.006;4.374;2022-10-16T09:02:11;11.73;;;6.45;;
17177;SDS011;8704;52.006;4.374;2022-10-16T09:04:53;11.20;;;7.03;;
17177;SDS011;8704;52.006;4.374;2022-10-16T09:07:30;16.55;;;6.28;;
17177;SDS011;8704;52.006;4.374;2022-10-16T09:10:17;13.88;;;5.22;;
17177;SDS011;8704;52.006;4.374;2022-10-16T09:12:57;10.73;;;5.05;;
17177;SDS011;8704;52.006;4.374;2022-10-16T09:15:35;16.60;;;6.13;;
17177;SDS011;8704;52.006;4.374;2022-10-16T09:18:10;13.38;;;6.20;;
17177;SDS011;8704;52.006;4.374;2022-10-16T09:20:45;13.82;;;5.35;;
17177;SDS011;8704;52.006;4.374;2022-10-16T09:23:19;15.63;;;5.03;;
17177;SDS011;8704;52.006;4.374;2022-10-16T09:25:52;12.73;;;4.60;;
17177;SDS011;8704;52.006;4.374;2022-10-16T09:28:23;14.23;;;4.53;;
17177;SDS011;8704;52.006;4.374;2022-10-16T09:30:51;18.25;;;5.28;;
17177;SDS011;8704;52.006;4.374;2022-10-16T09:33:20;15.48;;;4.05;;
17177;SDS011;8704;52.006;4.374;2022-10-16T09:35:53;15.98;;;4.50;;
17177;SDS011;8704;52.006;4.374;2022-10-16T09:38:25;16.48;;;4.28;;
17177;SDS011;8704;52.006;4.374;2022-10-16T09:40:55;17.60;;;4.70;;
17177;SDS011;8704;52.006;4.374;2022-10-16T09:43:31;14.65;;;4.35;;
17177;SDS011;8704;52.006;4.374;2022-10-16T09:46:06;12.65;;;3.75;;
17177;SDS011;8704;52.006;4.374;2022-10-16T09:48:36;15.30;;;5.00;;
17177;SDS011;8704;52.006;4.374;2022-10-16T09:51:13;16.30;;;4.25;;
17177;SDS011;8704;52.006;4.374;2022-10-16T09:53:46;15.75;;;3.88;;
17177;SDS011;8704;52.006;4.374;2022-10-16T09:56:21;14.52;;;4.00;;
17177;SDS011;8704;52.006;4.374;2022-10-16T09:58:52;13.68;;;4.05;;
17177;SDS011;8704;52.006;4.374;2022-10-16T10:01:23;15.38;;;3.38;;
17177;SDS011;8704;52.006;4.374;2022-10-16T10:03:55;12.57;;;3.97;;
17177;SDS011;8704;52.006;4.374;2022-10-16T10:06:28;13.30;;;3.65;;
17177;SDS011;8704;52.006;4.374;2022-10-16T10:08:59;13.85;;;3.42;;
17177;SDS011;8704;52.006;4.374;2022-10-16T10:14:21;13.43;;;3.40;;
17177;SDS011;8704;52.006;4.374;2022-10-16T10:19:40;20.08;;;3.83;;
17177;SDS011;8704;52.006;4.374;2022-10-16T10:22:25;12.95;;;3.10;;
17177;SDS011;8704;52.006;4.374;2022-10-16T10:24:57;11.90;;;3.15;;
17177;SDS011;8704;52.006;4.374;2022-10-16T10:27:37;16.45;;;3.65;;
17177;SDS011;8704;52.006;4.374;2022-10-16T10:30:15;12.60;;;3.30;;
17177;SDS011;8704;52.006;4.374;2022-10-16T10:32:49;15.00;;;3.35;;
17177;SDS011;8704;52.006;4.374;2022-10-16T10:35:31;17.95;;;3.58;;
17177;SDS011;8704;52.006;4.374;2022-10-16T10:38:13;13.75;;;3.25;;
17177;SDS011;8704;52.006;4.374;2022-10-16T10:40:55;19.35;;;3.72;;
17177;SDS011;8704;52.006;4.374;2022-10-16T10:43:38;17.40;;;3.15;;
17177;SDS011;8704;52.006;4.374;2022-10-16T10:46:16;18.50;;;3.40;;
17177;SDS011;8704;52.006;4.374;2022-10-16T10:48:56;13.25;;;3.40;;
17177;SDS011;8704;52.006;4.374;2022-10-16T10:51:36;12.20;;;2.88;;
17177;SDS011;8704;52.006;4.374;2022-10-16T10:54:14;13.18;;;3.13;;
17177;SDS011;8704;52.006;4.374;2022-10-16T10:56:49;9.77;;;2.30;;
17177;SDS011;8704;52.006;4.374;2022-10-16T10:59:28;10.95;;;3.15;;
17177;SDS011;8704;52.006;4.374;2022-10-16T11:02:13;13.02;;;2.85;;
17177;SDS011;8704;52.006;4.374;2022-10-16T11:04:58;14.15;;;2.75;;
17177;SDS011;8704;52.006;4.374;2022-10-16T11:07:43;15.73;;;2.88;;
17177;SDS011;8704;52.006;4.374;2022-10-16T11:10:17;9.63;;;2.55;;
17177;SDS011;8704;52.006;4.374;2022-10-16T11:12:49;13.30;;;2.53;;
17177;SDS011;8704;52.006;4.374;2022-10-16T11:15:21;16.42;;;2.47;;
17177;SDS011;8704;52.006;4.374;2022-10-16T11:17:57;11.63;;;2.70;;
17177;SDS011;8704;52.006;4.374;2022-10-16T11:20:32;17.05;;;2.83;;
17177;SDS011;8704;52.006;4.374;2022-10-16T11:23:02;10.45;;;2.58;;
17177;SDS011;8704;52.006;4.374;2022-10-16T11:25:36;13.63;;;2.78;;
17177;SDS011;8704;52.006;4.374;2022-10-16T11:28:07;10.65;;;2.60;;
17177;SDS011;8704;52.006;4.374;2022-10-16T11:30:42;12.15;;;2.22;;
17177;SDS011;8704;52.006;4.374;2022-10-16T11:36:07;8.43;;;2.00;;
17177;SDS011;8704;52.006;4.374;2022-10-16T11:38:41;8.85;;;1.90;;
17177;SDS011;8704;52.006;4.374;2022-10-16T11:41:18;10.40;;;2.17;;
17177;SDS011;8704;52.006;4.374;2022-10-16T11:43:52;9.68;;;2.45;;
17177;SDS011;8704;52.006;4.374;2022-10-16T11:46:30;9.90;;;2.33;;
17177;SDS011;8704;52.006;4.374;2022-10-16T11:49:24;14.30;;;2.50;;
17177;SDS011;8704;52.006;4.374;2022-10-16T11:51:56;9.73;;;1.85;;
17177;SDS011;8704;52.006;4.374;2022-10-16T11:54:34;11.15;;;2.20;;
17177;SDS011;8704;52.006;4.374;2022-10-16T11:57:08;13.85;;;2.70;;
17177;SDS011;8704;52.006;4.374;2022-10-16T11:59:41;13.35;;;2.42;;
17177;SDS011;8704;52.006;4.374;2022-10-16T12:02:31;10.70;;;1.92;;
17177;SDS011;8704;52.006;4.374;2022-10-16T12:05:15;11.95;;;2.20;;
17177;SDS011;8704;52.006;4.374;2022-10-16T12:07:50;10.70;;;2.13;;
17177;SDS011;8704;52.006;4.374;2022-10-16T12:10:26;11.50;;;2.00;;
17177;SDS011;8704;52.006;4.374;2022-10-16T12:12:55;7.50;;;1.95;;
17177;SDS011;8704;52.006;4.374;2022-10-16T12:15:24;13.43;;;2.67;;
17177;SDS011;8704;52.006;4.374;2022-10-16T12:18:20;9.82;;;2.17;;
17177;SDS011;8704;52.006;4.374;2022-10-16T12:20:55;9.18;;;2.20;;
17177;SDS011;8704;52.006;4.374;2022-10-16T12:23:26;16.65;;;2.58;;
17177;SDS011;8704;52.006;4.374;2022-10-16T12:25:54;12.57;;;2.25;;
17177;SDS011;8704;52.006;4.374;2022-10-16T12:28:26;9.10;;;2.63;;
17177;SDS011;8704;52.006;4.374;2022-10-16T12:30:56;13.98;;;2.92;;
17177;SDS011;8704;52.006;4.374;2022-10-16T12:33:26;16.13;;;2.53;;
17177;SDS011;8704;52.006;4.374;2022-10-16T12:35:57;10.68;;;2.15;;
17177;SDS011;8704;52.006;4.374;2022-10-16T12:38:27;12.63;;;2.60;;
17177;SDS011;8704;52.006;4.374;2022-10-16T12:40:58;10.10;;;2.20;;
17177;SDS011;8704;52.006;4.374;2022-10-16T12:43:35;12.20;;;2.78;;
17177;SDS011;8704;52.006;4.374;2022-10-16T12:46:19;12.57;;;2.45;;
17177;SDS011;8704;52.006;4.374;2022-10-16T12:48:50;11.88;;;2.30;;
17177;SDS011;8704;52.006;4.374;2022-10-16T12:51:37;14.63;;;2.80;;
17177;SDS011;8704;52.006;4.374;2022-10-16T12:54:11;11.98;;;2.80;;
17177;SDS011;8704;52.006;4.374;2022-10-16T12:56:43;12.88;;;2.45;;
17177;SDS011;8704;52.006;4.374;2022-10-16T12:59:25;15.03;;;2.60;;
17177;SDS011;8704;52.006;4.374;2022-10-16T13:02:08;13.68;;;2.60;;
17177;SDS011;8704;52.006;4.374;2022-10-16T13:05:02;11.00;;;2.20;;
17177;SDS011;8704;52.006;4.374;2022-10-16T13:07:47;10.50;;;2.53;;
17177;SDS011;8704;52.006;4.374;2022-10-16T13:10:23;11.13;;;2.88;;
17177;SDS011;8704;52.006;4.374;2022-10-16T13:13:15;10.85;;;2.58;;
17177;SDS011;8704;52.006;4.374;2022-10-16T13:16:04;15.23;;;2.90;;
17177;SDS011;8704;52.006;4.374;2022-10-16T13:18:43;13.27;;;2.83;;
17177;SDS011;8704;52.006;4.374;2022-10-16T13:21:22;13.70;;;2.35;;
17177;SDS011;8704;52.006;4.374;2022-10-16T13:24:02;12.07;;;2.70;;
17177;SDS011;8704;52.006;4.374;2022-10-16T13:26:38;13.65;;;2.78;;
17177;SDS011;8704;52.006;4.374;2022-10-16T13:29:12;12.07;;;2.47;;
17177;SDS011;8704;52.006;4.374;2022-10-16T13:31:42;15.38;;;2.60;;
17177;SDS011;8704;52.006;4.374;2022-10-16T13:34:12;11.57;;;2.58;;
17177;SDS011;8704;52.006;4.374;2022-10-16T13:36:44;10.13;;;2.25;;
17177;SDS011;8704;52.006;4.374;2022-10-16T13:42:03;13.18;;;2.70;;
17177;SDS011;8704;52.006;4.374;2022-10-16T13:44:35;9.27;;;2.17;;
17177;SDS011;8704;52.006;4.374;2022-10-16T13:47:14;10.15;;;2.60;;
17177;SDS011;8704;52.006;4.374;2022-10-16T13:49:43;15.27;;;3.03;;
17177;SDS011;8704;52.006;4.374;2022-10-16T13:52:15;10.93;;;2.45;;
17177;SDS011;8704;52.006;4.374;2022-10-16T13:54:46;10.77;;;2.53;;
17177;SDS011;8704;52.006;4.374;2022-10-16T13:57:15;11.45;;;2.47;;
17177;SDS011;8704;52.006;4.374;2022-10-16T13:59:59;9.75;;;2.38;;
17177;SDS011;8704;52.006;4.374;2022-10-16T14:02:27;11.45;;;2.20;;
17177;SDS011;8704;52.006;4.374;2022-10-16T14:04:57;9.45;;;2.38;;
17177;SDS011;8704;52.006;4.374;2022-10-16T14:07:26;8.60;;;2.30;;
17177;SDS011;8704;52.006;4.374;2022-10-16T14:09:58;14.25;;;2.70;;
17177;SDS011;8704;52.006;4.374;2022-10-16T14:12:29;13.27;;;2.85;;
17177;SDS011;8704;52.006;4.374;2022-10-16T14:14:57;16.45;;;2.70;;
17177;SDS011;8704;52.006;4.374;2022-10-16T14:17:27;8.45;;;2.55;;
17177;SDS011;8704;52.006;4.374;2022-10-16T14:19:57;13.40;;;2.63;;
17177;SDS011;8704;52.006;4.374;2022-10-16T14:22:32;14.00;;;2.55;;
17177;SDS011;8704;52.006;4.374;2022-10-16T14:25:18;12.20;;;2.40;;
17177;SDS011;8704;52.006;4.374;2022-10-16T14:27:59;10.68;;;2.67;;
17177;SDS011;8704;52.006;4.374;2022-10-16T14:30:30;8.98;;;2.30;;
17177;SDS011;8704;52.006;4.374;2022-10-16T14:33:00;9.52;;;2.83;;
17177;SDS011;8704;52.006;4.374;2022-10-16T14:35:30;13.13;;;2.40;;
17177;SDS011;8704;52.006;4.374;2022-10-16T14:38:00;10.23;;;2.80;;
17177;SDS011;8704;52.006;4.374;2022-10-16T14:40:31;13.43;;;3.00;;
17177;SDS011;8704;52.006;4.374;2022-10-16T14:43:01;12.75;;;3.45;;
17177;SDS011;8704;52.006;4.374;2022-10-16T14:45:30;9.32;;;2.67;;
17177;SDS011;8704;52.006;4.374;2022-10-16T14:48:01;10.82;;;2.85;;
17177;SDS011;8704;52.006;4.374;2022-10-16T14:50:32;12.73;;;3.30;;
17177;SDS011;8704;52.006;4.374;2022-10-16T14:53:00;13.00;;;2.92;;
17177;SDS011;8704;52.006;4.374;2022-10-16T14:55:28;9.60;;;2.60;;
17177;SDS011;8704;52.006;4.374;2022-10-16T14:57:57;12.00;;;2.88;;
17177;SDS011;8704;52.006;4.374;2022-10-16T15:00:26;14.85;;;3.33;;
17177;SDS011;8704;52.006;4.374;2022-10-16T15:02:54;9.75;;;2.90;;
17177;SDS011;8704;52.006;4.374;2022-10-16T15:05:23;11.82;;;2.90;;
17177;SDS011;8704;52.006;4.374;2022-10-16T15:07:53;13.55;;;2.90;;
17177;SDS011;8704;52.006;4.374;2022-10-16T15:10:22;12.57;;;2.75;;
17177;SDS011;8704;52.006;4.374;2022-10-16T15:12:51;9.73;;;2.58;;
17177;SDS011;8704;52.006;4.374;2022-10-16T15:15:32;9.45;;;2.50;;
17177;SDS011;8704;52.006;4.374;2022-10-16T15:20:32;10.07;;;2.75;;
17177;SDS011;8704;52.006;4.374;2022-10-16T15:23:02;13.38;;;2.97;;
17177;SDS011;8704;52.006;4.374;2022-10-16T15:25:34;12.20;;;2.70;;
17177;SDS011;8704;52.006;4.374;2022-10-16T15:28:05;12.02;;;2.80;;
17177;SDS011;8704;52.006;4.374;2022-10-16T15:30:35;10.48;;;2.80;;
17177;SDS011;8704;52.006;4.374;2022-10-16T15:33:04;13.23;;;3.20;;
17177;SDS011;8704;52.006;4.374;2022-10-16T15:35:37;14.63;;;3.40;;
17177;SDS011;8704;52.006;4.374;2022-10-16T15:38:05;11.27;;;2.90;;
17177;SDS011;8704;52.006;4.374;2022-10-16T15:40:32;8.98;;;3.00;;